Time;durP1;ratioP1;P1;durP2;ratioP2;P2;SDS_P1;SDS_P2;PMS_P1;PMS_P2;Temp;Humidity;BMP_temperature;BMP_pressure;BME280_temperature;BME280_humidity;BME280_pressure;Samples;Min_cycle;Max_cycle;Signal;HPM_P1;HPM_P2
2021/09/30 00:00:57;;;;;;;5.74;4.88;;;;;;;7.33;60.78;102394.98;464333;112;923252;-77
2021/09/30 00:02:00;;;;;;;5.51;4.82;;;;;;;7.32;60.77;102389.73;464819;114;922734;-77
2021/09/30 00:03:04;;;;;;;6.49;4.50;;;;;;;7.31;60.76;102390.73;464565;113;923379;-78
2021/09/30 00:04:07;;;;;;;5.36;4.51;;;;;;;7.30;60.76;102394.44;464404;114;930416;-77
2021/09/30 00:05:12;;;;;;;6.12;4.29;;;;;;;7.29;60.76;102390.02;464925;114;923089;-75
2021/09/30 00:06:16;;;;;;;4.95;4.50;;;;;;;7.27;60.72;102395.61;464604;113;928044;-77
2021/09/30 00:07:19;;;;;;;5.15;4.53;;;;;;;7.25;60.73;102391.33;463025;114;922962;-78
2021/09/30 00:08:23;;;;;;;5.62;4.28;;;;;;;7.23;60.73;102393.32;464557;113;930479;-78
2021/09/30 00:09:27;;;;;;;6.26;4.52;;;;;;;7.20;60.74;102389.06;464511;113;930387;-78
2021/09/30 00:10:31;;;;;;;6.12;4.41;;;;;;;7.18;60.75;102391.06;464192;113;923130;-77
2021/09/30 00:11:40;;;;;;;4.84;4.41;;;;;;;7.18;60.80;102391.06;465389;112;923518;-77
2021/09/30 00:12:43;;;;;;;4.22;3.78;;;;;;;7.17;60.82;102397.48;464261;112;923112;-77
2021/09/30 00:13:57;;;;;;;4.45;3.83;;;;;;;7.17;60.86;102396.66;465053;113;923088;-77
2021/09/30 00:17:36;;;;;;;4.50;3.96;;;;;;;7.15;60.79;102395.94;464381;113;922471;-78
2021/09/30 00:36:16;;;;;;;4.39;3.52;;;;;;;7.00;60.56;102398.28;464439;114;922531;-78
2021/09/30 00:40:01;;;;;;;5.12;3.79;;;;;;;6.89;60.80;102401.99;464572;114;922481;-78
2021/09/30 00:40:58;;;;;;;3.42;3.11;;;;;;;6.88;60.80;102402.16;461161;112;922899;-78
2021/09/30 00:42:14;;;;;;;3.99;3.36;;;;;;;6.85;60.83;102406.00;462815;113;922772;-77
2021/09/30 00:45:58;;;;;;;5.26;3.83;;;;;;;6.86;60.95;102410.44;454801;115;922910;-78
2021/09/30 00:52:22;;;;;;;6.22;4.33;;;;;;;6.91;60.82;102402.71;464314;113;922600;-78
2021/09/30 01:22:53;;;;;;;6.27;5.01;;;;;;;6.62;60.85;102410.89;465056;114;922621;-77
2021/09/30 01:46:50;;;;;;;4.58;3.64;;;;;;;6.18;62.29;102428.58;460424;114;922465;-76
2021/09/30 01:57:56;;;;;;;4.04;3.64;;;;;;;6.02;62.21;102433.69;461132;114;923549;-77
2021/09/30 02:18:19;;;;;;;3.61;3.27;;;;;;;5.93;62.31;102444.52;460978;114;922813;-77
2021/09/30 02:18:23;;;;;;;5.97;3.82;;;;;;;5.95;62.76;102451.52;461039;114;922684;-78
2021/09/30 02:22:16;;;;;;;5.12;4.19;;;;;;;5.95;62.59;102447.95;460468;114;922424;-77
2021/09/30 02:23:29;;;;;;;7.08;4.73;;;;;;;5.93;62.60;102445.38;457017;114;923182;-78
2021/09/30 02:24:32;;;;;;;5.72;4.89;;;;;;;5.93;62.60;102445.38;455093;114;922468;-78
2021/09/30 02:27:02;;;;;;;5.22;4.77;;;;;;;5.93;62.68;102447.22;460663;114;922620;-78
2021/09/30 02:31:10;;;;;;;5.56;5.00;;;;;;;5.94;62.67;102452.51;454024;114;923780;-78
2021/09/30 02:59:39;;;;;;;7.78;5.63;;;;;;;5.77;63.01;102469.38;450978;117;923600;-75
2021/09/30 03:00:43;;;;;;;7.13;5.64;;;;;;;5.79;63.00;102464.66;450320;114;922740;-78
2021/09/30 03:01:48;;;;;;;5.62;5.12;;;;;;;5.81;62.90;102466.25;461278;114;922549;-80
2021/09/30 03:02:55;;;;;;;6.24;5.46;;;;;;;5.85;62.79;102470.39;460562;114;923237;-76
2021/09/30 03:04:00;;;;;;;5.28;4.34;;;;;;;5.88;62.65;102472.01;460476;114;923344;-77
2021/09/30 03:05:05;;;;;;;4.97;4.49;;;;;;;5.89;62.49;102468.31;461153;114;922597;-79
2021/09/30 03:06:10;;;;;;;5.73;4.67;;;;;;;5.93;62.34;102474.30;459634;114;930464;-77
2021/09/30 03:07:16;;;;;;;8.61;4.97;;;;;;;5.93;62.34;102474.30;463196;114;922487;-78
2021/09/30 03:08:29;;;;;;;7.30;4.62;;;;;;;5.94;62.25;102474.16;461251;114;923003;-77
2021/09/30 03:09:39;;;;;;;4.36;3.92;;;;;;;5.97;62.14;102473.02;461062;114;922976;-78
2021/09/30 03:10:45;;;;;;;5.47;3.69;;;;;;;5.98;62.11;102475.59;460051;114;922532;-77
2021/09/30 03:11:52;;;;;;;4.21;3.86;;;;;;;6.02;62.08;102477.02;460583;114;922555;-77
2021/09/30 03:12:56;;;;;;;5.44;4.13;;;;;;;6.04;61.92;102475.04;461072;114;923508;-78
2021/09/30 03:14:01;;;;;;;3.74;3.44;;;;;;;6.04;61.79;102475.04;463186;114;922594;-77
2021/09/30 03:17:50;;;;;;;5.68;3.68;;;;;;;6.02;61.48;102477.02;460475;114;923355;-78
2021/09/30 03:19:01;;;;;;;4.47;3.93;;;;;;;6.01;61.58;102471.77;462537;114;922559;-77
2021/09/30 03:20:05;;;;;;;6.81;3.78;;;;;;;6.00;61.57;102468.20;452309;116;922614;-78
2021/09/30 03:22:18;;;;;;;6.25;4.42;;;;;;;5.98;61.39;102472.02;460181;114;922635;-76
2021/09/30 03:23:25;;;;;;;5.43;4.26;;;;;;;5.95;61.48;102481.30;459095;113;923029;-78
2021/09/30 03:24:29;;;;;;;4.48;4.08;;;;;;;5.94;61.52;102481.43;460623;114;922988;-77
2021/09/30 03:25:33;;;;;;;7.35;4.21;;;;;;;5.94;61.52;102481.43;460132;114;923119;-77
2021/09/30 03:26:40;;;;;;;7.58;4.61;;;;;;;5.92;61.56;102477.98;460007;114;923021;-78
2021/09/30 03:27:43;;;;;;;4.81;4.29;;;;;;;5.91;61.63;102487.10;460559;114;922584;-78
2021/09/30 03:28:49;;;;;;;5.99;4.51;;;;;;;5.90;61.67;102482.70;461294;114;930539;-77
2021/09/30 03:29:52;;;;;;;5.46;4.13;;;;;;;5.89;61.65;102486.41;458500;115;923120;-77
2021/09/30 03:30:59;;;;;;;5.81;4.36;;;;;;;5.86;61.60;102480.23;458623;115;922845;-78
2021/09/30 03:32:05;;;;;;;4.19;3.78;;;;;;;5.84;61.65;102486.79;460708;114;922924;-77
2021/09/30 03:33:24;;;;;;;6.71;4.86;;;;;;;5.82;61.69;102486.92;458658;114;923027;-78
2021/09/30 03:34:36;;;;;;;5.75;4.69;;;;;;;5.80;61.74;102479.91;458283;114;922774;-78
2021/09/30 03:35:40;;;;;;;6.33;3.83;;;;;;;5.78;61.85;102482.78;459938;114;922401;-77
2021/09/30 03:36:44;;;;;;;4.92;4.33;;;;;;;5.78;61.95;102482.78;460309;114;922696;-77
2021/09/30 03:37:48;;;;;;;4.81;4.37;;;;;;;5.78;62.05;102482.78;460366;114;922971;-76
2021/09/30 03:38:52;;;;;;;4.95;4.43;;;;;;;5.81;62.08;102489.75;460585;114;923014;-78
2021/09/30 03:39:56;;;;;;;6.61;4.80;;;;;;;5.80;62.09;102488.89;460553;114;922662;-78
2021/09/30 03:41:01;;;;;;;9.34;4.23;;;;;;;5.80;62.02;102488.89;459442;114;930571;-76
2021/09/30 03:42:08;;;;;;;12.02;4.59;;;;;;;5.81;61.98;102489.75;459755;114;922578;-78
2021/09/30 03:43:13;;;;;;;5.29;4.00;;;;;;;5.79;62.02;102487.17;460649;114;923094;-77
2021/09/30 03:44:17;;;;;;;10.53;4.29;;;;;;;5.81;62.05;102490.61;460771;114;922605;-79
2021/09/30 03:45:21;;;;;;;6.26;4.16;;;;;;;5.81;62.02;102492.45;461022;114;931072;-78
2021/09/30 03:46:40;;;;;;;10.31;4.42;;;;;;;5.81;62.02;102496.03;459573;114;922857;-76
2021/09/30 03:47:51;;;;;;;6.17;4.66;;;;;;;5.81;61.98;102495.17;454187;114;922547;-77
2021/09/30 03:48:56;;;;;;;7.21;4.67;;;;;;;5.79;61.98;102495.30;460036;114;922743;-78
2021/09/30 03:50:00;;;;;;;4.41;3.90;;;;;;;5.78;61.95;102490.04;459847;114;931099;-77
2021/09/30 03:51:11;;;;;;;5.83;4.55;;;;;;;5.77;61.98;102493.73;460621;114;922720;-78
2021/09/30 03:52:24;;;;;;;6.29;4.47;;;;;;;5.76;62.15;102498.29;459265;114;922743;-77
2021/09/30 03:54:15;;;;;;;;;;;;;;;5.76;62.15;102498.29;462482;114;922109;-79
2021/09/30 03:54:37;;;;;;;5.45;4.10;;;;;;;5.75;62.07;102496.57;453783;114;922788;-77
2021/09/30 03:57:08;;;;;;;5.96;4.17;;;;;;;5.69;62.21;102501.66;459449;114;922561;-77
2021/09/30 03:59:32;;;;;;;7.06;4.57;;;;;;;5.68;62.24;102497.27;459585;114;922999;-77
2021/09/30 04:00:42;;;;;;;7.13;5.09;;;;;;;5.67;62.24;102501.83;458244;114;922575;-78
2021/09/30 04:01:52;;;;;;;8.70;5.94;;;;;;;5.67;62.32;102492.84;459038;114;922852;-79
2021/09/30 04:02:54;;;;;;;7.63;5.92;;;;;;;5.68;62.33;102497.27;458787;114;922839;-77
2021/09/30 04:03:58;;;;;;;7.08;5.16;;;;;;;5.69;62.32;102496.25;459341;114;922735;-78
2021/09/30 04:05:02;;;;;;;8.12;6.41;;;;;;;5.72;62.36;102501.41;460074;114;922664;-78
2021/09/30 04:06:05;;;;;;;7.74;6.06;;;;;;;5.76;62.31;102497.43;458430;114;923111;-78
2021/09/30 04:07:09;;;;;;;7.96;6.01;;;;;;;5.79;62.22;102500.70;460513;114;930417;-78
2021/09/30 04:08:14;;;;;;;8.36;5.84;;;;;;;5.83;62.14;102498.61;458971;114;922539;-76
2021/09/30 04:09:26;;;;;;;13.68;6.12;;;;;;;5.86;62.01;102499.17;459554;114;930558;-79
2021/09/30 04:10:24;;;;;;;7.32;5.96;;;;;;;5.89;61.83;102498.09;446732;118;930578;-77
2021/09/30 04:11:27;;;;;;;8.99;5.63;;;;;;;5.91;61.73;102496.08;447264;118;923012;-77
2021/09/30 04:12:31;;;;;;;15.96;5.68;;;;;;;5.93;61.68;102499.52;439204;120;922589;-78
2021/09/30 04:13:37;;;;;;;9.64;5.58;;;;;;;5.94;61.64;102498.53;438340;118;925185;-79
2021/09/30 04:14:41;;;;;;;11.51;5.49;;;;;;;5.95;61.63;102500.25;439409;119;922664;-79
2021/09/30 04:15:49;;;;;;;9.54;5.06;;;;;;;5.96;61.57;102498.37;445376;118;930828;-79
2021/09/30 04:16:52;;;;;;;6.68;5.85;;;;;;;5.96;61.56;102507.35;461859;113;922475;-80
2021/09/30 04:17:56;;;;;;;10.61;5.66;;;;;;;5.95;61.60;102502.09;459286;114;922791;-80
2021/09/30 04:19:00;;;;;;;14.56;5.68;;;;;;;5.96;61.65;102503.78;459972;114;922482;-78
2021/09/30 04:20:05;;;;;;;9.91;5.86;;;;;;;5.97;61.68;102503.66;459821;114;930747;-78
2021/09/30 04:21:09;;;;;;;7.94;6.01;;;;;;;6.00;61.59;102507.95;459362;114;930514;-80
2021/09/30 04:22:12;;;;;;;9.00;5.64;;;;;;;5.99;61.58;102498.11;459700;114;922950;-79
2021/09/30 04:23:16;;;;;;;9.08;6.39;;;;;;;6.01;61.55;102504.26;460019;114;930486;-79
2021/09/30 04:24:20;;;;;;;11.94;6.39;;;;;;;6.00;61.53;102508.81;459360;114;923140;-78
2021/09/30 04:25:24;;;;;;;12.17;6.50;;;;;;;5.99;61.64;102509.80;460628;114;930643;-78
2021/09/30 04:26:28;;;;;;;7.32;6.60;;;;;;;5.99;61.65;102501.68;460886;114;922753;-78
2021/09/30 04:27:31;;;;;;;11.57;6.68;;;;;;;6.00;61.67;102506.11;460954;114;922698;-79
2021/09/30 04:28:35;;;;;;;11.89;5.98;;;;;;;6.03;61.60;102515.78;460649;113;923112;-77
2021/09/30 04:29:39;;;;;;;8.18;6.15;;;;;;;6.05;61.61;102502.98;462096;114;930412;-79
2021/09/30 04:30:43;;;;;;;7.92;6.21;;;;;;;6.06;61.60;102508.27;459936;114;922560;-79
2021/09/30 04:31:49;;;;;;;8.81;6.79;;;;;;;6.09;61.58;102507.11;458758;114;922730;-76
2021/09/30 04:32:52;;;;;;;8.98;6.19;;;;;;;6.11;61.52;102505.99;460507;114;922763;-76
2021/09/30 04:33:56;;;;;;;7.19;6.33;;;;;;;6.14;61.47;102507.55;447285;116;922805;-77
2021/09/30 04:35:00;;;;;;;8.41;6.38;;;;;;;6.17;61.42;102515.41;449168;114;930726;-78
2021/09/30 04:36:04;;;;;;;10.06;6.79;;;;;;;6.18;61.41;102517.96;461985;114;922665;-78
2021/09/30 04:37:07;;;;;;;8.09;6.29;;;;;;;6.20;61.36;102512.41;443252;116;930675;-76
2021/09/30 04:38:13;;;;;;;11.62;6.15;;;;;;;6.22;61.38;102521.27;445321;114;923071;-79
2021/09/30 04:39:17;;;;;;;16.57;11.88;;;;;;;6.23;61.39;102518.40;447971;116;923295;-79
2021/09/30 04:40:21;;;;;;;18.33;9.01;;;;;;;6.26;61.39;102518.13;450463;117;922794;-79
2021/09/30 04:41:25;;;;;;;8.35;7.52;;;;;;;6.29;61.38;102516.98;445178;117;922591;-77
2021/09/30 04:42:29;;;;;;;11.54;7.86;;;;;;;6.31;61.31;102520.42;453802;114;922777;-80
2021/09/30 04:43:33;;;;;;;10.41;6.91;;;;;;;6.35;61.29;102526.41;459435;114;922682;-79
2021/09/30 04:44:37;;;;;;;12.79;6.54;;;;;;;6.36;61.27;102519.99;459228;114;923055;-77
2021/09/30 04:45:41;;;;;;;8.46;7.14;;;;;;;6.39;61.29;102531.43;460496;114;922603;-79
2021/09/30 04:46:52;;;;;;;9.44;6.94;;;;;;;6.43;61.29;102523.86;459481;114;923014;-77
2021/09/30 04:48:06;;;;;;;160.66;14.37;;;;;;;6.46;61.27;102529.84;458114;114;923210;-77
2021/09/30 04:49:10;;;;;;;155.44;14.45;;;;;;;6.50;61.20;102520.47;461816;114;922641;-77
2021/09/30 04:50:14;;;;;;;39.79;7.87;;;;;;;6.54;61.15;102527.30;461015;114;930348;-76
2021/09/30 04:51:18;;;;;;;17.68;6.01;;;;;;;6.56;61.08;102525.29;459355;114;922530;-78
2021/09/30 04:52:22;;;;;;;12.81;5.89;;;;;;;6.60;61.00;102531.30;459953;114;923028;-76
2021/09/30 04:53:25;;;;;;;28.71;6.99;;;;;;;6.61;60.94;102533.02;462634;114;922625;-76
2021/09/30 04:54:29;;;;;;;15.72;6.45;;;;;;;6.62;60.93;102526.58;460786;114;922972;-77
2021/09/30 04:55:32;;;;;;;75.79;9.34;;;;;;;6.64;60.92;102530.02;461215;114;922840;-77
2021/09/30 04:56:36;;;;;;;14.70;6.38;;;;;;;6.64;60.89;102525.45;461075;114;922931;-77
2021/09/30 04:57:41;;;;;;;9.57;5.57;;;;;;;6.66;60.86;102536.16;440482;119;922829;-77
2021/09/30 04:58:45;;;;;;;97.46;11.44;;;;;;;6.69;60.85;102528.59;451201;116;923218;-77
2021/09/30 04:59:49;;;;;;;136.59;11.80;;;;;;;6.72;60.87;102524.75;453824;114;930328;-77
2021/09/30 05:01:03;;;;;;;219.34;18.24;;;;;;;6.74;60.87;102528.16;462730;114;922808;-77
2021/09/30 05:02:08;;;;;;;108.99;13.65;;;;;;;6.78;60.83;102528.75;458558;114;922370;-77
2021/09/30 05:03:11;;;;;;;90.44;13.68;;;;;;;6.79;60.82;102531.30;459444;114;930475;-77
2021/09/30 05:04:15;;;;;;;81.84;11.73;;;;;;;6.83;60.80;102526.47;460107;113;922535;-77
2021/09/30 05:05:19;;;;;;;14.96;6.39;;;;;;;6.84;60.79;102531.72;463768;114;930323;-78
2021/09/30 05:06:23;;;;;;;10.16;5.50;;;;;;;6.87;60.73;102531.45;461619;114;922559;-76
2021/09/30 05:07:26;;;;;;;7.73;5.48;;;;;;;6.88;60.60;102530.46;460450;114;922661;-76
2021/09/30 05:08:34;;;;;;;9.30;6.08;;;;;;;6.90;60.50;102533.01;460121;114;922952;-77
2021/09/30 05:09:37;;;;;;;7.53;5.26;;;;;;;6.91;60.50;102527.45;462534;114;930484;-77
2021/09/30 05:10:42;;;;;;;6.08;5.04;;;;;;;6.94;60.57;102531.75;461225;114;922324;-77
2021/09/30 05:11:53;;;;;;;11.67;4.86;;;;;;;6.97;60.53;102534.16;458987;114;930552;-78
2021/09/30 05:13:00;;;;;;;12.31;5.78;;;;;;;7.00;60.48;102531.17;459951;114;922563;-78
2021/09/30 05:14:03;;;;;;;7.71;6.61;;;;;;;7.05;60.42;102531.59;463360;114;922476;-77
2021/09/30 05:15:09;;;;;;;9.46;6.74;;;;;;;7.08;60.33;102534.00;460957;114;922521;-79
2021/09/30 05:16:14;;;;;;;7.74;6.89;;;;;;;7.11;60.28;102544.58;447543;115;923044;-78
2021/09/30 05:17:35;;;;;;;7.47;6.45;;;;;;;7.15;60.20;102537.00;452588;114;922594;-77
2021/09/30 05:18:44;;;;;;;8.13;7.40;;;;;;;7.19;60.20;102538.41;460795;114;922290;-76
2021/09/30 05:19:45;;;;;;;8.39;6.12;;;;;;;7.20;60.16;102534.70;461377;114;930460;-77
2021/09/30 05:20:50;;;;;;;7.52;6.08;;;;;;;7.23;60.08;102542.53;461383;114;922748;-78
2021/09/30 05:21:54;;;;;;;7.42;5.62;;;;;;;7.26;60.08;102536.84;460209;114;922512;-78
2021/09/30 05:22:58;;;;;;;8.11;6.51;;;;;;;7.28;60.07;102532.95;462665;114;930411;-75
2021/09/30 05:24:02;;;;;;;5.20;4.64;;;;;;;7.30;60.07;102540.97;461494;114;930640;-76
2021/09/30 05:25:07;;;;;;;4.33;3.75;;;;;;;7.34;60.04;102539.66;460998;114;922655;-76
2021/09/30 05:26:15;;;;;;;4.63;4.23;;;;;;;7.38;59.97;102543.82;449093;117;922658;-77
2021/09/30 05:27:18;;;;;;;5.54;4.44;;;;;;;7.40;59.90;102537.22;448359;114;922669;-76
2021/09/30 05:28:22;;;;;;;7.89;6.72;;;;;;;7.43;59.86;102533.38;443526;115;922608;-77
2021/09/30 05:29:26;;;;;;;8.91;8.09;;;;;;;7.45;59.83;102537.64;442773;114;923201;-80
2021/09/30 05:30:43;;;;;;;10.08;8.14;;;;;;;7.47;59.85;102541.08;461577;114;930904;-78
2021/09/30 05:31:49;;;;;;;6.78;5.92;;;;;;;7.50;59.88;102539.91;459725;114;922570;-77
2021/09/30 05:32:55;;;;;;;6.83;6.23;;;;;;;7.52;59.83;102535.20;449729;113;922920;-77
2021/09/30 05:33:59;;;;;;;6.08;5.38;;;;;;;7.53;59.81;102537.77;462054;114;922619;-76
2021/09/30 05:35:04;;;;;;;8.17;4.81;;;;;;;7.57;59.83;102540.18;462459;114;922619;-77
2021/09/30 05:36:10;;;;;;;6.72;5.62;;;;;;;7.59;59.83;102541.76;460095;114;922643;-75
2021/09/30 05:37:14;;;;;;;5.65;5.15;;;;;;;7.62;59.83;102540.59;462174;114;922912;-77
2021/09/30 05:38:18;;;;;;;5.17;4.67;;;;;;;7.64;59.78;102539.45;461528;114;922569;-76
2021/09/30 05:39:22;;;;;;;6.23;4.07;;;;;;;7.65;59.82;102538.45;452538;116;922906;-77
2021/09/30 05:40:28;;;;;;;5.67;5.25;;;;;;;7.66;59.82;102534.74;452931;114;923008;-78
2021/09/30 05:41:32;;;;;;;5.84;5.23;;;;;;;7.69;59.70;102542.58;461128;114;922615;-78
2021/09/30 05:42:36;;;;;;;6.39;5.79;;;;;;;7.71;59.64;102537.86;460496;114;922422;-79
2021/09/30 05:43:45;;;;;;;7.38;6.78;;;;;;;7.74;59.58;102539.41;462703;114;922928;-79
2021/09/30 05:44:45;;;;;;;6.98;6.19;;;;;;;7.75;59.52;102536.55;460085;114;922580;-78
2021/09/30 05:45:55;;;;;;;5.49;4.56;;;;;;;7.77;59.39;102542.70;461879;114;922487;-78
2021/09/30 05:46:57;;;;;;;5.00;4.59;;;;;;;7.78;59.25;102541.67;460127;113;922950;-78
2021/09/30 05:48:00;;;;;;;7.35;4.82;;;;;;;7.80;59.14;102541.53;461948;113;922638;-77
2021/09/30 05:49:05;;;;;;;6.26;5.75;;;;;;;7.82;59.09;102548.55;459844;114;930483;-78
2021/09/30 05:50:10;;;;;;;6.24;5.71;;;;;;;7.84;58.97;102542.94;463351;114;922480;-78
2021/09/30 05:51:15;;;;;;;6.91;6.11;;;;;;;7.86;59.00;102541.80;457887;114;922667;-79
2021/09/30 05:52:30;;;;;;;10.43;6.30;;;;;;;7.87;59.01;102535.37;455201;114;923355;-79
2021/09/30 05:53:51;;;;;;;6.22;5.71;;;;;;;7.88;59.00;102537.05;461104;114;922525;-77
2021/09/30 05:55:03;;;;;;;;;;;;;;;7.91;59.02;102538.63;462612;114;922174;-78
2021/09/30 05:56:07;;;;;;;5.60;5.10;;;;;;;7.93;59.01;102544.78;462674;114;922388;-77
2021/09/30 05:57:11;;;;;;;5.89;5.24;;;;;;;7.92;58.97;102546.64;462722;114;923386;-82
2021/09/30 05:58:16;;;;;;;5.02;4.56;;;;;;;7.93;59.02;102548.36;460464;114;930625;-81
2021/09/30 05:59:21;;;;;;;6.25;5.00;;;;;;;7.94;59.13;102541.89;461256;114;923555;-79
2021/09/30 06:00:52;;;;;;;6.12;5.53;;;;;;;7.98;59.17;102549.76;463186;114;922917;-77
2021/09/30 06:12:43;;;;;;;5.01;3.31;;;;;;;8.16;58.94;102551.50;462834;114;922792;-80
2021/09/30 06:13:52;;;;;;;3.37;3.07;;;;;;;8.18;58.98;102543.21;461974;114;922434;-79
2021/09/30 06:14:52;;;;;;;4.71;3.37;;;;;;;8.19;58.98;102544.92;461472;114;923011;-77
2021/09/30 06:15:57;;;;;;;4.32;2.66;;;;;;;8.22;58.95;102547.33;452865;116;923340;-79
2021/09/30 06:17:01;;;;;;;3.50;2.93;;;;;;;8.24;58.98;102542.61;453525;114;922555;-78
2021/09/30 06:18:09;;;;;;;4.71;3.67;;;;;;;8.26;58.80;102556.91;461242;114;924029;-79
2021/09/30 06:19:20;;;;;;;5.69;3.68;;;;;;;8.29;58.65;102552.02;463457;114;922645;-76
2021/09/30 06:20:22;;;;;;;7.47;5.24;;;;;;;8.32;58.49;102554.45;452394;116;923194;-78
2021/09/30 06:21:26;;;;;;;7.76;5.35;;;;;;;8.35;58.18;102550.58;454577;114;923362;-79
2021/09/30 06:22:30;;;;;;;6.52;4.79;;;;;;;8.37;57.88;102548.58;462261;114;923066;-80
2021/09/30 06:23:34;;;;;;;6.69;4.98;;;;;;;8.38;57.79;102546.72;461736;114;922689;-78
2021/09/30 06:24:38;;;;;;;6.92;4.66;;;;;;;8.40;57.76;102552.84;461268;114;930514;-77
2021/09/30 06:25:44;;;;;;;6.12;5.27;;;;;;;8.42;57.61;102556.27;458591;114;923071;-77
2021/09/30 06:26:49;;;;;;;9.04;5.74;;;;;;;8.44;57.53;102546.08;460917;114;922888;-78
2021/09/30 06:27:53;;;;;;;9.07;5.64;;;;;;;8.45;57.51;102554.09;452176;116;922603;-79
2021/09/30 06:28:57;;;;;;;6.81;6.08;;;;;;;8.47;57.51;102554.81;452711;114;929032;-79
2021/09/30 06:30:01;;;;;;;7.58;5.97;;;;;;;8.49;57.50;102549.23;461021;114;923027;-78
2021/09/30 06:31:06;;;;;;;5.72;5.17;;;;;;;8.52;57.51;102554.34;461874;114;923220;-78
2021/09/30 06:32:28;;;;;;;5.74;5.15;;;;;;;8.55;57.47;102556.73;462656;114;923385;-79
2021/09/30 06:33:52;;;;;;;7.72;5.08;;;;;;;8.57;57.42;102558.31;463594;114;922478;-79
2021/09/30 06:35:07;;;;;;;8.22;3.97;;;;;;;8.60;57.48;102549.01;443190;114;922791;-78
2021/09/30 06:36:14;;;;;;;6.73;3.47;;;;;;;8.63;57.49;102554.12;460864;114;922946;-78
2021/09/30 06:37:18;;;;;;;4.56;3.26;;;;;;;8.65;57.35;102557.55;461118;114;922627;-78
2021/09/30 06:38:22;;;;;;;7.60;4.31;;;;;;;8.67;57.29;102555.52;444817;116;923068;-78
2021/09/30 06:39:26;;;;;;;4.61;2.99;;;;;;;8.69;57.31;102561.67;446392;114;922778;-81
2021/09/30 06:40:31;;;;;;;4.85;2.82;;;;;;;8.71;57.15;102557.77;463878;114;930571;-79
2021/09/30 06:41:34;;;;;;;5.74;3.57;;;;;;;8.73;56.99;102561.20;460882;114;922556;-78
2021/09/30 06:42:58;;;;;;;6.11;3.82;;;;;;;8.76;57.00;102565.48;461926;114;923018;-77
2021/09/30 06:44:07;;;;;;;6.67;3.17;;;;;;;8.77;57.02;102557.16;460527;114;922556;-77
2021/09/30 06:45:30;;;;;;;5.41;4.00;;;;;;;8.80;56.99;102561.44;462581;114;922682;-76
2021/09/30 06:46:51;;;;;;;4.94;3.04;;;;;;;8.82;56.96;102559.41;462066;114;922844;-78
2021/09/30 06:47:55;;;;;;;5.39;3.62;;;;;;;8.85;57.00;102558.25;459833;114;923191;-78
2021/09/30 06:49:01;;;;;;;7.17;3.24;;;;;;;8.86;57.01;102557.24;460938;114;922847;-78
2021/09/30 06:50:09;;;;;;;6.45;3.50;;;;;;;8.88;56.92;102563.36;439532;119;923035;-78
2021/09/30 06:51:22;;;;;;;5.14;3.61;;;;;;;8.90;56.91;102553.20;439934;117;922776;-78
2021/09/30 06:52:26;;;;;;;5.39;3.52;;;;;;;8.92;56.84;102559.34;455183;114;922783;-79
2021/09/30 06:53:31;;;;;;;4.19;3.21;;;;;;;8.94;56.79;102568.19;461271;114;922493;-79
2021/09/30 06:54:37;;;;;;;5.86;3.54;;;;;;;8.95;56.74;102554.44;462590;114;923181;-79
2021/09/30 06:55:46;;;;;;;6.67;3.98;;;;;;;8.98;56.74;102562.30;443783;119;922853;-77
2021/09/30 06:57:01;;;;;;;6.11;5.17;;;;;;;9.01;56.70;102559.25;435513;121;922734;-79
2021/09/30 06:58:24;;;;;;;4.70;3.31;;;;;;;9.05;56.57;102559.79;437863;120;922892;-77
2021/09/30 06:59:47;;;;;;;4.52;3.17;;;;;;;9.07;56.34;102561.36;461144;114;922955;-79
2021/09/30 07:00:58;;;;;;;4.41;3.61;;;;;;;9.09;56.24;102558.48;455420;114;922577;-78
2021/09/30 07:02:09;;;;;;;10.27;3.39;;;;;;;9.12;56.37;102555.44;446855;118;923719;-80
2021/09/30 07:03:20;;;;;;;7.67;3.81;;;;;;;9.26;56.23;102563.06;487674;107;925948;-79
2021/09/30 07:04:42;;;;;;;3.92;3.13;;;;;;;9.17;56.14;102564.84;472788;110;922846;-79
2021/09/30 07:06:05;;;;;;;5.87;3.48;;;;;;;9.20;55.96;102558.23;474187;110;922930;-79
2021/09/30 07:07:08;;;;;;;6.67;4.35;;;;;;;9.21;55.92;102566.22;475944;110;922606;-79
2021/09/30 07:08:12;;;;;;;8.68;4.27;;;;;;;9.23;55.92;102563.35;475737;110;922542;-79
2021/09/30 07:09:16;;;;;;;5.95;3.67;;;;;;;9.25;55.82;102561.34;475746;110;930452;-79
2021/09/30 07:10:21;;;;;;;4.19;3.27;;;;;;;9.29;55.60;102559.14;475088;110;930401;-78
2021/09/30 07:11:25;;;;;;;5.01;3.13;;;;;;;9.32;55.41;102561.57;474283;110;922524;-78
2021/09/30 07:12:28;;;;;;;9.46;3.79;;;;;;;9.35;55.33;102555.80;476763;110;922513;-79
2021/09/30 07:13:32;;;;;;;7.17;3.31;;;;;;;9.38;55.30;102556.31;475650;110;922549;-77
2021/09/30 07:14:35;;;;;;;6.97;5.49;;;;;;;9.41;55.24;102561.47;474357;110;922955;-79
2021/09/30 07:15:39;;;;;;;5.52;3.47;;;;;;;9.44;55.12;102566.58;473159;110;928797;-79
2021/09/30 07:16:43;;;;;;;4.81;2.70;;;;;;;9.46;54.90;102556.39;475394;110;922841;-78
2021/09/30 07:17:46;;;;;;;5.36;3.12;;;;;;;9.49;54.71;102556.06;474802;110;923175;-82
2021/09/30 07:18:50;;;;;;;6.96;3.34;;;;;;;9.51;54.61;102556.77;475395;110;930491;-79
2021/09/30 07:19:57;;;;;;;6.63;3.18;;;;;;;9.53;54.50;102549.30;475523;110;922521;-80
2021/09/30 07:21:01;;;;;;;4.08;3.16;;;;;;;9.56;54.37;102554.41;475059;110;922971;-78
2021/09/30 07:22:07;;;;;;;7.28;3.65;;;;;;;9.58;54.31;102557.84;468859;112;923077;-79
2021/09/30 07:23:10;;;;;;;6.08;3.59;;;;;;;9.62;54.29;102552.92;469394;110;923013;-77
2021/09/30 07:24:15;;;;;;;3.21;2.95;;;;;;;9.66;54.17;102556.16;474414;110;922463;-80
2021/09/30 07:25:24;;;;;;;4.02;2.52;;;;;;;9.69;54.08;102555.86;473348;110;930548;-80
2021/09/30 07:26:24;;;;;;;6.03;3.14;;;;;;;9.72;53.91;102558.25;475685;110;922987;-77
2021/09/30 07:27:28;;;;;;;5.00;3.72;;;;;;;9.75;53.85;102555.22;465756;112;922944;-78
2021/09/30 07:28:32;;;;;;;8.40;4.09;;;;;;;9.78;53.79;102558.46;466280;110;922735;-79
2021/09/30 07:29:37;;;;;;;4.96;2.79;;;;;;;9.81;53.58;102554.58;473906;110;923011;-80
2021/09/30 07:30:41;;;;;;;3.05;2.74;;;;;;;9.84;53.42;102552.37;471980;110;922396;-79
2021/09/30 07:31:44;;;;;;;5.02;2.66;;;;;;;9.87;53.35;102551.17;476724;110;930629;-78
2021/09/30 07:32:48;;;;;;;3.86;3.44;;;;;;;9.90;53.13;102545.42;475649;110;922449;-79
2021/09/30 07:33:54;;;;;;;4.22;3.24;;;;;;;9.94;52.94;102554.97;474721;110;930523;-78
2021/09/30 07:34:58;;;;;;;8.45;4.78;;;;;;;9.97;52.77;102557.39;477143;110;922532;-78
2021/09/30 07:36:02;;;;;;;4.28;3.54;;;;;;;9.99;52.51;102548.02;474017;110;930411;-79
2021/09/30 07:37:05;;;;;;;6.61;3.09;;;;;;;10.03;52.34;102551.28;476725;110;922449;-79
2021/09/30 07:38:10;;;;;;;5.54;3.02;;;;;;;10.05;52.29;102551.95;476067;110;922539;-79
2021/09/30 07:39:16;;;;;;;4.71;2.62;;;;;;;10.09;52.21;102545.15;475185;110;923059;-77
2021/09/30 07:40:22;;;;;;;6.24;3.94;;;;;;;10.12;51.99;102550.30;476541;110;922908;-79
2021/09/30 07:41:25;;;;;;;6.48;3.89;;;;;;;10.14;51.90;102553.72;475955;110;922594;-77
2021/09/30 07:42:29;;;;;;;7.58;3.95;;;;;;;10.17;51.63;102547.96;473251;110;922517;-78
2021/09/30 07:43:33;;;;;;;6.62;4.44;;;;;;;10.19;51.49;102550.53;474882;110;930346;-77
2021/09/30 07:44:37;;;;;;;5.85;4.12;;;;;;;10.22;51.48;102548.31;474741;110;922537;-79
2021/09/30 07:45:41;;;;;;;7.97;5.19;;;;;;;10.25;51.35;102544.42;472630;110;930543;-78
2021/09/30 07:46:46;;;;;;;6.81;3.12;;;;;;;10.28;51.26;102546.80;474617;110;923003;-78
2021/09/30 07:47:49;;;;;;;3.05;2.52;;;;;;;10.33;50.66;102549.89;475334;110;922834;-78
2021/09/30 07:48:53;;;;;;;4.24;3.09;;;;;;;10.33;50.66;102549.89;476120;110;930507;-79
2021/09/30 07:49:57;;;;;;;5.97;3.35;;;;;;;10.34;50.39;102549.73;479829;110;922884;-78
2021/09/30 07:51:01;;;;;;;2.94;2.15;;;;;;;10.36;50.17;102539.52;477376;110;930543;-78